Dayton, Maine
Current Conditions -  °F | °C
As of 7:55 PM on Saturday 25 Oct 2014 (Local Time) from KSFM Reporting Station
Scattered Clouds Scattered Clouds  
Wind Chill:   Ceiling: Unl
Heat Index:   Visibility: 10mi
Dew Point:   Wind: 5mph
Humidity: 76%   Direction: 250°WSW
Pressure: 29.54"   Gusts: NA
Location:  43.4906°N, 70.5283°W
Report Text: KSFM 252355Z AUTO 25004KT 10SM SCT100 07/03 A2954 RMK AO1 10180 20070 401800030 57007
Loading
Personal Weather Stations






























Interactive Weather Map
Tropical Storm Tracking
New forecast layout! Learn more

10-Day Weather Forecast

Advertisements
Track Severe Weather on mobile